Mc Connell Air Force Base Wichita US
ICAO: KIAB
IATA: IAB
Category: Medium
Scheduled Services: No

Elevation: 1371 ft
TransAlt. 18000 ft.

Airport Communications:
KS ANG OPS:30.16
WICHITA APP:120.6
ATIS:124.65
WICHITA DEP:120.6
GND:118
PMSV METRO:37.52
COMD POST:31.1
PTD:37.22
BOEING GND:123.125
TWR:127.25

KIAB Zoom In..

If you have problems with the map follow the link
https://www.worldairports.se/pages/airport.php?
ICAO=KIAB

Runways:

(A) RW 01L length 12000 ft width 150 ft
ILS 111.10 / hdg 8

(B) RW 01R length 12000 ft width 150 ft
---- / hdg 8

(C) RW 19L length 12000 ft width 150 ft
---- / hdg 188

(D) RW 19R length 12000 ft width 150 ft
ILS 109.90 / hdg 188

Location; KIAB
Day. 19 / Time. 17.56 Zulu
* Altimeter: 30.44
* Temperature: 04° c. 39.2°f.
* Wind from: 100° Speed 09 kn.
Dewpoint: -05° c.
Visibility: 10 Statute Miles.
Clouds: Overcast 8000 ft.

KIAB 191756Z AUTO 10009KT 10SM OVC080 04/M05 A3044 RMK AO2 SLP322 T00351054 10035 21015 $


Wind From 100°
Speed 09 kn.

 
 
jpsmedia worldairports.se 2020   terms of use